Time;durP1;ratioP1;P1;durP2;ratioP2;P2;SDS_P1;SDS_P2;PMS_P1;PMS_P2;Temp;Humidity;BMP_temperature;BMP_pressure;BME280_temperature;BME280_humidity;BME280_pressure;Samples;Min_cycle;Max_cycle;Signal;HPM_P1;HPM_P2
2020/12/05 00:02:10;;;;;;;6.07;2.83;;;5.40;91.10;;;;;;5030877;28;20457;-75
2020/12/05 00:04:36;;;;;;;8.65;4.05;;;5.40;91.20;;;;;;5032449;28;20042;-74
2020/12/05 00:07:02;;;;;;;7.45;2.92;;;5.40;91.10;;;;;;5032247;28;20040;-74
2020/12/05 00:09:27;;;;;;;6.97;3.22;;;5.40;91.10;;;;;;5023030;28;20054;-75
2020/12/05 00:11:53;;;;;;;7.95;3.28;;;5.40;91.10;;;;;;5010823;28;20462;-75
2020/12/05 00:14:19;;;;;;;9.60;3.08;;;5.40;91.00;;;;;;5012424;28;20025;-74
2020/12/05 00:16:48;;;;;;;6.28;3.08;;;5.40;91.00;;;;;;5012755;28;20033;-74
2020/12/05 00:19:14;;;;;;;6.95;3.28;;;5.40;91.00;;;;;;5011262;28;20026;-74
2020/12/05 00:21:39;;;;;;;6.05;3.08;;;5.40;91.00;;;;;;5012553;28;20045;-74
2020/12/05 00:24:05;;;;;;;11.98;3.40;;;5.40;91.00;;;;;;5011874;28;20075;-74
2020/12/05 00:26:31;;;;;;;8.77;3.05;;;5.40;91.00;;;;;;5011198;28;20462;-74
2020/12/05 00:28:57;;;;;;;7.13;2.78;;;5.40;91.00;;;;;;5010539;28;20488;-75
2020/12/05 00:31:22;;;;;;;7.63;3.53;;;5.40;91.00;;;;;;5010943;28;20033;-74
2020/12/05 00:33:50;;;;;;;4.80;2.47;;;5.40;91.10;;;;;;5012478;28;20108;-74
2020/12/05 00:36:19;;;;;;;11.13;3.58;;;5.40;91.10;;;;;;5011120;28;20113;-75
2020/12/05 00:38:45;;;;;;;8.23;3.45;;;5.30;91.10;;;;;;5011180;28;20109;-73
2020/12/05 00:41:16;;;;;;;6.55;3.17;;;5.30;91.10;;;;;;5011824;28;20025;-74
2020/12/05 00:43:42;;;;;;;5.90;2.90;;;5.30;91.10;;;;;;5011110;28;20505;-74
2020/12/05 00:46:07;;;;;;;6.60;2.90;;;5.30;91.00;;;;;;5011984;28;20037;-75
2020/12/05 00:48:33;;;;;;;5.07;2.08;;;5.30;91.00;;;;;;5012581;28;20034;-75
2020/12/05 00:50:58;;;;;;;5.20;2.20;;;5.30;91.00;;;;;;5010431;28;20385;-75
2020/12/05 00:53:24;;;;;;;5.05;2.17;;;5.30;91.00;;;;;;5011001;28;20498;-74
2020/12/05 00:55:50;;;;;;;5.78;2.90;;;5.30;91.00;;;;;;5012297;28;20036;-75
2020/12/05 00:58:16;;;;;;;6.38;2.22;;;5.30;91.10;;;;;;5027129;28;20050;-74
2020/12/05 01:00:42;;;;;;;3.63;1.88;;;5.30;91.10;;;;;;5010834;28;20030;-75
2020/12/05 01:03:08;;;;;;;5.50;2.33;;;5.30;91.10;;;;;;5011603;28;20541;-74
2020/12/05 01:05:38;;;;;;;6.35;2.67;;;5.20;91.10;;;;;;5010893;28;20113;-75
2020/12/05 01:08:05;;;;;;;7.28;2.20;;;5.20;91.10;;;;;;5011487;28;20033;-75
2020/12/05 01:10:31;;;;;;;5.45;2.05;;;5.20;91.20;;;;;;5012172;28;20026;-75
2020/12/05 01:12:57;;;;;;;7.20;2.47;;;5.20;91.20;;;;;;5011514;28;20076;-75
2020/12/05 01:15:22;;;;;;;4.57;2.17;;;5.20;91.20;;;;;;5010709;28;20034;-74
2020/12/05 01:17:48;;;;;;;5.53;2.35;;;5.10;91.20;;;;;;5012361;28;20071;-75
2020/12/05 01:20:14;;;;;;;3.55;2.08;;;5.10;91.20;;;;;;5010187;28;20114;-74
2020/12/05 01:22:40;;;;;;;4.78;2.28;;;5.10;91.20;;;;;;5011771;28;20388;-74
2020/12/05 01:25:08;;;;;;;4.60;2.03;;;5.10;91.20;;;;;;5011492;28;20024;-73
2020/12/05 01:27:34;;;;;;;5.85;2.20;;;5.10;91.30;;;;;;5010810;28;20327;-74
2020/12/05 01:29:59;;;;;;;4.82;1.88;;;5.10;91.30;;;;;;5011498;28;20437;-75
2020/12/05 01:32:25;;;;;;;4.30;1.90;;;5.00;91.20;;;;;;5011927;28;20029;-75
2020/12/05 01:34:51;;;;;;;6.82;2.05;;;5.10;91.30;;;;;;5012317;28;20030;-75
2020/12/05 01:37:16;;;;;;;3.28;1.90;;;5.10;91.30;;;;;;5010937;28;20036;-74
2020/12/05 01:39:42;;;;;;;4.50;1.90;;;5.00;91.20;;;;;;5014156;28;20118;-75
2020/12/05 01:42:08;;;;;;;5.20;2.10;;;5.00;91.20;;;;;;5014855;28;20477;-74
2020/12/05 01:44:34;;;;;;;3.88;1.90;;;5.00;91.20;;;;;;5014017;28;20030;-74
2020/12/05 01:47:02;;;;;;;6.60;2.00;;;5.00;91.20;;;;;;5014612;28;20037;-78
2020/12/05 01:49:29;;;;;;;7.95;2.10;;;5.00;91.30;;;;;;5013920;28;20125;-74
2020/12/05 01:51:55;;;;;;;4.95;2.35;;;5.00;91.20;;;;;;5013353;28;20041;-78
2020/12/05 01:54:21;;;;;;;4.53;2.10;;;5.00;91.20;;;;;;5013877;28;20049;-74
2020/12/05 01:57:00;;;;;;;5.65;1.88;;;5.00;91.20;;;;;;5013880;28;20428;-74
2020/12/05 01:59:26;;;;;;;4.00;1.92;;;5.00;91.20;;;;;;5015396;28;20065;-74
2020/12/05 02:01:56;;;;;;;3.60;1.65;;;5.00;91.20;;;;;;5015059;28;20022;-73
2020/12/05 02:04:22;;;;;;;3.95;1.55;;;5.00;91.10;;;;;;5014938;28;20065;-74
2020/12/05 02:07:23;;;;;;;4.10;2.15;;;5.00;91.10;;;;;;5014907;28;20034;-74
2020/12/05 02:09:52;;;;;;;4.20;2.00;;;5.00;91.10;;;;;;4992648;28;20026;-74
2020/12/05 02:12:44;;;;;;;3.65;1.75;;;5.10;91.10;;;;;;5010049;28;20054;-74
2020/12/05 02:15:20;;;;;;;3.90;2.17;;;5.10;91.00;;;;;;5013700;28;20034;-75
2020/12/05 02:17:58;;;;;;;4.18;2.10;;;5.10;91.00;;;;;;5013624;28;20197;-74
2020/12/05 02:20:25;;;;;;;5.28;2.10;;;5.10;91.00;;;;;;5030021;28;20458;-74
2020/12/05 02:22:51;;;;;;;2.95;1.85;;;5.10;91.00;;;;;;5014266;28;20068;-74
2020/12/05 02:25:18;;;;;;;5.47;2.13;;;5.20;91.00;;;;;;5012705;28;20018;-74
2020/12/05 02:27:44;;;;;;;5.88;1.85;;;5.20;90.90;;;;;;5014857;28;20032;-74
2020/12/05 02:30:11;;;;;;;3.90;2.08;;;5.20;90.90;;;;;;5014028;28;20033;-74
2020/12/05 02:32:37;;;;;;;4.85;2.08;;;5.30;90.90;;;;;;5014143;28;20394;-73
2020/12/05 02:35:04;;;;;;;4.97;2.13;;;5.30;90.80;;;;;;5013574;28;20165;-74
2020/12/05 02:37:31;;;;;;;3.83;1.92;;;5.30;90.80;;;;;;5014311;28;20416;-75
2020/12/05 02:40:00;;;;;;;4.78;1.75;;;5.40;90.90;;;;;;5013682;28;20076;-81
2020/12/05 02:42:26;;;;;;;5.32;2.10;;;5.30;90.80;;;;;;5012932;28;20119;-74
2020/12/05 02:44:53;;;;;;;4.85;2.25;;;5.40;90.80;;;;;;5014469;28;20430;-74
2020/12/05 02:47:20;;;;;;;5.53;2.30;;;5.40;90.80;;;;;;5012301;28;20053;-75
2020/12/05 02:49:47;;;;;;;5.57;2.65;;;5.40;90.80;;;;;;5012634;28;20481;-75
2020/12/05 02:52:13;;;;;;;3.67;1.95;;;5.40;90.80;;;;;;5012299;28;20032;-75
2020/12/05 02:54:39;;;;;;;9.90;2.30;;;5.40;90.80;;;;;;5013925;28;20029;-75
2020/12/05 02:57:05;;;;;;;6.03;2.45;;;5.40;90.80;;;;;;5013504;28;20084;-74
2020/12/05 02:59:31;;;;;;;4.35;2.35;;;5.40;90.80;;;;;;5014255;28;20485;-74
2020/12/05 03:01:58;;;;;;;3.92;1.80;;;5.40;90.80;;;;;;5013723;28;20097;-74
2020/12/05 03:04:24;;;;;;;5.03;2.15;;;5.40;90.80;;;;;;5012571;28;20026;-74
2020/12/05 03:06:50;;;;;;;6.03;2.10;;;5.40;90.80;;;;;;5012593;28;20030;-74
2020/12/05 03:09:16;;;;;;;3.50;2.15;;;5.40;90.80;;;;;;5013226;28;20101;-74
2020/12/05 03:11:42;;;;;;;7.90;2.10;;;5.40;90.80;;;;;;5012544;28;20061;-74
2020/12/05 03:14:08;;;;;;;5.63;2.03;;;5.40;90.80;;;;;;5013418;28;20057;-74
2020/12/05 03:16:34;;;;;;;3.00;1.95;;;5.40;90.80;;;;;;5013637;28;20038;-74
2020/12/05 03:19:00;;;;;;;4.88;2.20;;;5.40;90.80;;;;;;5011830;28;20108;-78
2020/12/05 03:21:25;;;;;;;5.72;2.20;;;5.40;90.80;;;;;;5013282;28;20377;-74
2020/12/05 03:23:51;;;;;;;4.25;1.98;;;5.40;90.80;;;;;;5013732;28;20033;-74
2020/12/05 03:26:17;;;;;;;7.38;2.17;;;5.40;90.80;;;;;;5012970;28;20017;-74
2020/12/05 03:28:43;;;;;;;3.80;2.28;;;5.40;90.80;;;;;;5013489;28;20054;-74
2020/12/05 03:31:15;;;;;;;3.53;1.98;;;5.40;90.80;;;;;;5012879;28;20022;-74
2020/12/05 03:33:42;;;;;;;5.80;1.75;;;5.40;90.90;;;;;;5013414;28;20037;-74
2020/12/05 03:36:08;;;;;;;3.17;1.80;;;5.30;90.80;;;;;;5012560;28;20030;-74
2020/12/05 03:38:33;;;;;;;3.85;2.08;;;5.30;90.90;;;;;;5013501;28;20129;-73
2020/12/05 03:40:59;;;;;;;4.20;2.05;;;5.30;90.90;;;;;;5013135;28;20029;-73
2020/12/05 03:43:24;;;;;;;5.22;2.15;;;5.30;90.90;;;;;;5011380;28;20026;-73
2020/12/05 03:45:50;;;;;;;3.70;1.88;;;5.30;90.90;;;;;;5012839;28;20080;-74
2020/12/05 03:48:16;;;;;;;2.97;2.03;;;5.30;90.90;;;;;;5012298;28;20375;-74
2020/12/05 03:50:41;;;;;;;5.63;1.92;;;5.20;90.90;;;;;;5011713;28;20512;-74
2020/12/05 03:53:07;;;;;;;4.28;1.90;;;5.20;90.90;;;;;;5012405;28;20029;-74
2020/12/05 03:55:33;;;;;;;4.60;2.08;;;5.20;90.90;;;;;;5012708;28;20030;-74
2020/12/05 03:58:01;;;;;;;3.50;1.98;;;5.10;90.90;;;;;;5011306;28;20046;-74
2020/12/05 04:00:30;;;;;;;5.20;2.30;;;5.10;91.00;;;;;;5012024;28;20381;-74
2020/12/05 04:02:56;;;;;;;3.55;2.20;;;5.10;91.00;;;;;;5011536;28;20458;-74
2020/12/05 04:05:22;;;;;;;4.22;2.15;;;5.00;91.00;;;;;;5012559;28;20044;-74
2020/12/05 04:07:47;;;;;;;4.45;2.20;;;5.10;91.10;;;;;;5012526;28;20481;-74
2020/12/05 04:10:13;;;;;;;4.80;2.20;;;5.00;91.10;;;;;;5012266;28;20026;-74
2020/12/05 04:12:39;;;;;;;5.85;2.15;;;5.00;91.10;;;;;;5011431;28;20430;-73
2020/12/05 04:15:04;;;;;;;4.28;2.10;;;5.00;91.20;;;;;;5011888;28;20049;-73
2020/12/05 04:17:31;;;;;;;4.35;1.83;;;4.90;91.20;;;;;;5011238;28;20026;-74
2020/12/05 04:19:56;;;;;;;4.50;1.92;;;5.00;91.20;;;;;;5012676;28;20032;-74
2020/12/05 04:22:22;;;;;;;3.50;1.90;;;4.90;91.20;;;;;;5012029;28;20259;-74
2020/12/05 04:24:48;;;;;;;15.82;4.35;;;5.00;91.20;;;;;;5011218;28;20069;-74
2020/12/05 04:27:14;;;;;;;5.18;2.70;;;5.00;91.20;;;;;;5012009;28;20466;-74
2020/12/05 04:29:39;;;;;;;6.10;2.67;;;5.00;91.20;;;;;;5011311;28;20018;-74
2020/12/05 04:32:05;;;;;;;5.00;2.17;;;5.00;91.20;;;;;;5011857;28;20513;-75
2020/12/05 04:34:30;;;;;;;6.78;3.20;;;5.00;91.20;;;;;;5011088;28;20061;-74
2020/12/05 04:36:56;;;;;;;7.13;3.53;;;5.00;91.20;;;;;;5011136;28;20065;-73
2020/12/05 04:39:22;;;;;;;7.97;3.65;;;5.00;91.20;;;;;;5012119;28;20026;-74
2020/12/05 04:41:47;;;;;;;4.72;2.92;;;5.00;91.20;;;;;;5011995;28;20517;-74
2020/12/05 04:44:14;;;;;;;4.78;2.60;;;5.00;91.20;;;;;;5011688;28;20532;-74
2020/12/05 04:46:41;;;;;;;8.65;2.83;;;5.00;91.20;;;;;;5011990;28;20470;-73
2020/12/05 04:49:07;;;;;;;7.20;2.55;;;4.90;91.10;;;;;;5012149;28;20030;-74
2020/12/05 04:51:38;;;;;;;4.70;2.45;;;4.90;91.20;;;;;;5012223;28;20093;-73
2020/12/05 04:54:05;;;;;;;5.15;2.33;;;4.90;91.20;;;;;;5012317;28;20068;-73
2020/12/05 04:56:39;;;;;;;2.92;2.00;;;4.90;91.20;;;;;;5012138;28;20084;-73
2020/12/05 04:59:06;;;;;;;4.60;2.22;;;4.90;91.20;;;;;;5011896;28;20042;-74
2020/12/05 05:01:36;;;;;;;4.10;2.40;;;4.90;91.20;;;;;;5027465;28;20108;-74
2020/12/05 05:04:06;;;;;;;3.78;2.20;;;4.90;91.20;;;;;;5012296;28;20030;-75
2020/12/05 05:06:32;;;;;;;4.30;2.25;;;4.90;91.30;;;;;;5011185;28;20026;-74
2020/12/05 05:08:58;;;;;;;4.05;2.20;;;4.80;91.30;;;;;;5010867;28;20377;-73
2020/12/05 05:11:29;;;;;;;5.25;2.40;;;4.80;91.30;;;;;;5010276;28;20117;-73
2020/12/05 05:13:59;;;;;;;8.65;2.70;;;4.80;91.30;;;;;;5014431;28;20496;-73
2020/12/05 05:16:28;;;;;;;5.03;2.25;;;4.80;91.30;;;;;;5014065;28;20413;-73
2020/12/05 05:18:54;;;;;;;5.00;2.65;;;4.80;91.30;;;;;;5015795;28;20104;-73
2020/12/05 05:21:39;;;;;;;4.28;2.30;;;4.70;91.20;;;;;;5013890;28;20355;-73
2020/12/05 05:24:15;;;;;;;13.38;3.20;;;4.80;91.30;;;;;;5014438;28;20354;-75
2020/12/05 05:26:42;;;;;;;5.32;2.33;;;4.80;91.20;;;;;;5015786;28;20117;-73
2020/12/05 05:29:25;;;;;;;5.50;2.42;;;4.70;91.20;;;;;;5015113;28;20516;-75
2020/12/05 05:31:59;;;;;;;4.85;1.90;;;4.70;91.20;;;;;;5015498;28;20025;-73
2020/12/05 05:34:25;;;;;;;5.32;2.30;;;4.70;91.20;;;;;;5013724;28;20030;-73
2020/12/05 05:36:50;;;;;;;5.40;2.50;;;4.70;91.20;;;;;;5013741;28;20042;-74
2020/12/05 05:39:18;;;;;;;3.60;2.17;;;4.70;91.20;;;;;;5029920;28;20116;-73
2020/12/05 05:41:54;;;;;;;7.78;2.60;;;4.70;91.20;;;;;;5015528;28;20026;-73
2020/12/05 05:44:25;;;;;;;5.22;2.75;;;4.70;91.20;;;;;;5014771;28;20041;-74
2020/12/05 05:46:51;;;;;;;9.68;2.40;;;4.70;91.20;;;;;;5030566;28;20026;-74
2020/12/05 05:49:31;;;;;;;5.82;2.78;;;4.70;91.20;;;;;;5013349;28;20030;-74
2020/12/05 05:51:58;;;;;;;4.68;2.47;;;4.80;91.20;;;;;;5013960;28;20060;-74
2020/12/05 05:54:33;;;;;;;6.28;2.60;;;4.70;91.20;;;;;;5014347;28;20022;-74
2020/12/05 05:57:11;;;;;;;5.18;2.47;;;4.70;91.20;;;;;;5014978;28;20041;-74
2020/12/05 05:59:44;;;;;;;4.18;2.15;;;4.70;91.20;;;;;;5013688;28;20054;-74
2020/12/05 06:02:12;;;;;;;5.93;2.50;;;4.80;91.20;;;;;;5014437;28;20101;-75
2020/12/05 06:04:42;;;;;;;4.65;2.35;;;4.70;91.20;;;;;;5015098;28;20025;-74
2020/12/05 06:07:18;;;;;;;4.18;1.83;;;4.70;91.20;;;;;;5015158;28;20053;-73
2020/12/05 06:09:47;;;;;;;5.40;2.70;;;4.70;91.20;;;;;;5013679;28;20382;-74
2020/12/05 06:12:23;;;;;;;6.22;2.42;;;4.70;91.20;;;;;;5013091;28;20338;-73
2020/12/05 06:14:49;;;;;;;4.90;2.13;;;4.70;91.20;;;;;;5014884;28;20032;-74
2020/12/05 06:17:20;;;;;;;4.95;2.33;;;4.60;91.10;;;;;;5012530;28;20034;-74
2020/12/05 06:19:51;;;;;;;5.63;2.53;;;4.60;91.20;;;;;;5014954;28;20077;-74
2020/12/05 06:22:46;;;;;;;5.85;2.78;;;4.60;91.20;;;;;;5014244;28;20021;-74
2020/12/05 06:25:14;;;;;;;6.00;2.85;;;4.60;91.20;;;;;;5013009;28;20037;-74
2020/12/05 06:27:42;;;;;;;4.10;2.22;;;4.50;91.20;;;;;;5014268;28;20036;-75
2020/12/05 06:30:09;;;;;;;6.47;2.53;;;4.60;91.20;;;;;;5012960;28;20021;-75
2020/12/05 06:32:46;;;;;;;6.63;2.83;;;4.50;91.20;;;;;;5013869;28;20096;-74
2020/12/05 06:35:23;;;;;;;5.20;2.38;;;4.50;91.20;;;;;;5013856;28;20022;-78
2020/12/05 06:37:56;;;;;;;4.55;2.08;;;4.50;91.20;;;;;;5014323;28;20030;-74
2020/12/05 06:40:23;;;;;;;6.25;2.92;;;4.40;91.30;;;;;;5014006;28;20060;-75
2020/12/05 06:42:52;;;;;;;7.30;2.60;;;4.40;91.30;;;;;;5014561;28;20137;-74
2020/12/05 06:45:27;;;;;;;4.78;2.25;;;4.40;91.30;;;;;;5012695;28;20080;-74
2020/12/05 06:48:12;;;;;;;7.57;3.67;;;4.40;91.30;;;;;;5012720;28;20026;-74
2020/12/05 06:50:47;;;;;;;4.50;2.72;;;4.30;91.30;;;;;;5013877;28;20033;-74
2020/12/05 06:53:21;;;;;;;4.68;2.65;;;4.30;91.30;;;;;;5012422;28;20026;-78
2020/12/05 06:55:48;;;;;;;4.85;2.25;;;4.30;91.30;;;;;;5012736;28;20034;-74
2020/12/05 06:58:14;;;;;;;4.35;2.55;;;4.30;91.30;;;;;;5013447;28;20077;-75
2020/12/05 07:00:41;;;;;;;3.72;2.28;;;4.30;91.30;;;;;;5012434;28;20030;-74
2020/12/05 07:03:10;;;;;;;6.47;2.40;;;4.30;91.30;;;;;;5014095;28;20024;-74
2020/12/05 07:05:43;;;;;;;6.63;2.97;;;4.30;91.20;;;;;;5012046;28;20037;-74
2020/12/05 07:08:37;;;;;;;6.30;3.20;;;4.30;91.20;;;;;;5014032;28;20037;-74
2020/12/05 07:11:15;;;;;;;4.95;2.40;;;4.30;91.10;;;;;;5011812;28;20058;-74
2020/12/05 07:13:45;;;;;;;6.05;2.88;;;4.30;91.10;;;;;;5013443;28;20080;-74
2020/12/05 07:16:22;;;;;;;5.55;3.28;;;4.30;91.10;;;;;;5013855;28;20033;-74
2020/12/05 07:18:49;;;;;;;7.22;3.10;;;4.30;91.10;;;;;;5013528;28;20026;-74
2020/12/05 07:21:16;;;;;;;8.38;3.15;;;4.30;91.10;;;;;;5013061;28;20021;-75
2020/12/05 07:23:42;;;;;;;6.30;2.75;;;4.40;91.10;;;;;;5012405;28;20022;-75
2020/12/05 07:26:08;;;;;;;7.78;3.30;;;4.40;91.00;;;;;;5013785;28;20033;-73
2020/12/05 07:28:34;;;;;;;7.10;3.10;;;4.40;91.00;;;;;;5012915;28;20655;-73
2020/12/05 07:31:01;;;;;;;8.63;3.25;;;4.50;91.00;;;;;;5012092;28;20026;-74
2020/12/05 07:33:28;;;;;;;8.57;3.88;;;4.50;91.20;;;;;;5012830;28;20033;-75
2020/12/05 07:36:05;;;;;;;4.32;2.50;;;4.50;90.90;;;;;;5011314;28;20038;-74
2020/12/05 07:38:34;;;;;;;8.13;2.65;;;4.60;91.20;;;;;;5011501;28;20537;-75
2020/12/05 07:41:25;;;;;;;6.68;2.85;;;4.50;91.20;;;;;;5013305;28;20026;-75
2020/12/05 07:43:55;;;;;;;7.28;2.90;;;4.60;90.90;;;;;;5013447;28;20369;-75
2020/12/05 07:46:21;;;;;;;4.47;2.78;;;4.60;90.90;;;;;;5011408;28;20087;-75
2020/12/05 07:48:46;;;;;;;7.55;2.67;;;4.60;90.80;;;;;;5012905;28;20097;-75
2020/12/05 07:51:14;;;;;;;6.10;2.88;;;4.60;90.80;;;;;;5013301;28;20104;-75
2020/12/05 07:53:39;;;;;;;4.80;2.55;;;4.70;90.90;;;;;;5012208;28;20093;-75
2020/12/05 07:56:16;;;;;;;6.25;3.13;;;4.60;90.80;;;;;;5013094;28;20141;-75
2020/12/05 07:58:50;;;;;;;8.63;3.25;;;4.70;90.80;;;;;;5011340;28;20058;-75
2020/12/05 08:01:28;;;;;;;7.43;3.22;;;4.70;90.80;;;;;;5011398;28;20021;-83
2020/12/05 08:04:18;;;;;;;6.53;2.97;;;4.70;90.80;;;;;;5012775;28;20471;-75
2020/12/05 08:07:01;;;;;;;8.85;2.70;;;4.70;90.80;;;;;;5011791;28;20088;-74
2020/12/05 08:09:35;;;;;;;6.03;2.90;;;4.80;90.80;;;;;;5012280;28;20110;-73
2020/12/05 08:12:12;;;;;;;6.72;2.95;;;4.80;90.80;;;;;;5012786;28;20080;-74
2020/12/05 08:14:42;;;;;;;6.47;3.28;;;4.80;90.80;;;;;;5010814;28;20429;-75
2020/12/05 08:17:09;;;;;;;6.70;2.72;;;4.80;90.80;;;;;;5012266;28;20083;-75
2020/12/05 08:19:39;;;;;;;7.70;2.88;;;4.80;90.80;;;;;;5010763;28;20378;-74
2020/12/05 08:22:08;;;;;;;4.97;2.78;;;4.80;90.90;;;;;;5012530;28;20026;-75
2020/12/05 08:24:51;;;;;;;5.13;2.88;;;4.80;90.90;;;;;;5010639;28;20069;-74
2020/12/05 08:27:20;;;;;;;5.28;2.60;;;4.90;90.90;;;;;;5011053;28;20149;-73
2020/12/05 08:29:50;;;;;;;9.00;3.67;;;4.90;90.80;;;;;;5011097;28;20083;-75
2020/12/05 08:32:20;;;;;;;8.75;3.47;;;4.90;90.80;;;;;;5012427;28;20034;-74
2020/12/05 08:34:46;;;;;;;6.35;2.88;;;4.90;90.80;;;;;;5011008;28;20048;-73
2020/12/05 08:37:31;;;;;;;7.97;3.08;;;5.00;90.80;;;;;;5010855;28;20030;-74
2020/12/05 08:39:58;;;;;;;6.65;3.58;;;5.10;90.70;;;;;;5012481;28;20029;-74
2020/12/05 08:42:24;;;;;;;7.15;2.90;;;5.10;90.70;;;;;;5011466;28;20417;-74
2020/12/05 08:44:50;;;;;;;8.85;3.38;;;5.10;90.70;;;;;;5011965;28;20025;-75
2020/12/05 08:47:15;;;;;;;6.80;2.85;;;5.10;90.70;;;;;;5013759;28;20045;-74
2020/12/05 08:49:44;;;;;;;6.63;2.85;;;5.10;90.70;;;;;;5015667;28;20022;-74
2020/12/05 08:52:11;;;;;;;6.35;2.30;;;5.10;90.70;;;;;;5014588;28;20029;-73
2020/12/05 08:54:46;;;;;;;7.85;2.97;;;5.10;90.70;;;;;;5015737;28;20069;-73
2020/12/05 08:57:13;;;;;;;6.53;2.83;;;5.20;90.80;;;;;;5016386;28;20034;-74
2020/12/05 08:59:39;;;;;;;4.43;2.63;;;5.20;90.80;;;;;;5015848;28;20049;-74
2020/12/05 09:02:05;;;;;;;6.10;2.53;;;5.20;90.80;;;;;;5016036;28;20018;-74
2020/12/05 09:04:33;;;;;;;9.30;3.60;;;5.20;90.90;;;;;;5015378;28;20029;-75
2020/12/05 09:07:14;;;;;;;6.82;3.20;;;5.20;90.90;;;;;;5014668;28;20045;-75
2020/12/05 09:09:44;;;;;;;6.97;2.58;;;5.20;90.90;;;;;;5013978;28;20113;-74
2020/12/05 09:12:13;;;;;;;5.55;2.40;;;5.30;90.90;;;;;;5015996;28;20021;-75
2020/12/05 09:14:39;;;;;;;7.05;2.25;;;5.30;90.90;;;;;;5015013;28;20095;-75
2020/12/05 09:17:23;;;;;;;7.00;2.13;;;5.30;90.90;;;;;;5014360;28;20037;-75
2020/12/05 09:19:50;;;;;;;5.10;2.05;;;5.40;90.90;;;;;;5015398;28;20406;-74
2020/12/05 09:22:32;;;;;;;5.22;2.22;;;5.40;90.90;;;;;;5014062;28;20033;-75
2020/12/05 09:24:59;;;;;;;6.78;2.58;;;5.40;90.90;;;;;;5015419;28;20061;-75
2020/12/05 09:27:35;;;;;;;7.40;2.80;;;5.40;90.90;;;;;;5015053;28;20064;-74
2020/12/05 09:30:04;;;;;;;7.75;2.38;;;5.50;90.90;;;;;;5014305;28;20469;-76
2020/12/05 09:32:46;;;;;;;10.45;3.45;;;5.50;90.90;;;;;;5015039;28;20025;-73
2020/12/05 09:35:18;;;;;;;7.22;2.88;;;5.50;90.90;;;;;;5014434;28;20022;-74
2020/12/05 09:37:43;;;;;;;;;;;5.50;90.80;;;;;;5014005;28;20045;-74
2020/12/05 09:40:11;;;;;;;4.18;2.10;;;5.50;90.80;;;;;;5015509;28;19952;-73
2020/12/05 09:42:38;;;;;;;5.80;2.63;;;5.60;90.80;;;;;;5013360;28;20029;-73
2020/12/05 09:45:05;;;;;;;6.80;2.83;;;5.60;90.80;;;;;;5015060;28;20029;-73
2020/12/05 09:47:31;;;;;;;6.35;2.85;;;5.60;90.80;;;;;;5013279;28;20421;-75
2020/12/05 09:49:57;;;;;;;4.70;2.58;;;5.60;90.80;;;;;;5013950;28;20458;-74
2020/12/05 09:52:23;;;;;;;6.97;2.22;;;5.70;90.80;;;;;;5014992;28;20030;-79
2020/12/05 09:54:49;;;;;;;4.97;2.63;;;5.70;90.80;;;;;;5015128;28;20048;-74
2020/12/05 09:57:15;;;;;;;6.03;2.30;;;5.70;90.80;;;;;;5014979;28;20033;-73
2020/12/05 09:59:42;;;;;;;4.65;2.10;;;5.80;90.80;;;;;;5013636;28;20050;-74
2020/12/05 10:02:09;;;;;;;4.72;2.40;;;5.80;90.80;;;;;;5015067;28;20057;-74
2020/12/05 10:04:35;;;;;;;6.57;2.45;;;5.80;90.70;;;;;;5013009;28;20105;-75
2020/12/05 10:07:00;;;;;;;5.45;1.60;;;5.80;90.70;;;;;;5013744;28;20037;-74
2020/12/05 10:09:26;;;;;;;6.25;2.50;;;5.90;90.70;;;;;;5014373;28;20460;-75
2020/12/05 10:11:52;;;;;;;3.67;2.53;;;5.90;90.60;;;;;;5015004;28;20036;-74
2020/12/05 10:14:17;;;;;;;4.55;2.03;;;5.90;90.60;;;;;;5013446;28;20030;-74
2020/12/05 10:16:43;;;;;;;7.10;2.08;;;5.90;90.50;;;;;;5014161;28;20041;-75
2020/12/05 10:19:09;;;;;;;5.32;2.20;;;6.00;90.50;;;;;;5014756;28;20029;-74
2020/12/05 10:21:35;;;;;;;4.90;1.88;;;6.00;90.50;;;;;;5012925;28;20025;-75
2020/12/05 10:24:00;;;;;;;3.85;1.75;;;6.00;90.40;;;;;;5014237;28;20057;-76
2020/12/05 10:26:26;;;;;;;5.53;2.10;;;6.00;90.40;;;;;;5013742;28;20030;-74
2020/12/05 10:28:52;;;;;;;3.83;2.15;;;6.10;90.40;;;;;;5014650;28;20022;-74
2020/12/05 10:31:17;;;;;;;5.63;2.30;;;6.10;90.30;;;;;;5012994;28;20025;-72
2020/12/05 10:33:43;;;;;;;4.18;1.98;;;6.10;90.20;;;;;;5012107;28;20048;-74
2020/12/05 10:36:09;;;;;;;4.00;2.10;;;6.20;90.20;;;;;;5013900;28;20116;-74
2020/12/05 10:38:35;;;;;;;5.80;1.80;;;6.20;90.20;;;;;;4985712;28;20486;-73
2020/12/05 10:41:00;;;;;;;3.70;1.70;;;6.30;90.20;;;;;;5030698;28;20021;-74
2020/12/05 10:43:26;;;;;;;4.28;1.85;;;6.30;90.10;;;;;;5030504;28;20021;-75
2020/12/05 10:45:52;;;;;;;3.47;1.80;;;6.30;89.90;;;;;;5031866;28;20492;-75
2020/12/05 10:48:17;;;;;;;3.80;2.00;;;6.50;89.90;;;;;;5032943;28;20033;-74
2020/12/05 10:50:43;;;;;;;3.55;1.73;;;6.50;89.80;;;;;;5028709;28;20357;-75
2020/12/05 10:53:09;;;;;;;4.72;1.70;;;6.60;89.60;;;;;;5030278;28;20036;-75
2020/12/05 10:55:34;;;;;;;4.75;2.25;;;6.70;89.50;;;;;;5031762;28;20017;-75
2020/12/05 10:58:00;;;;;;;3.50;2.00;;;6.70;89.30;;;;;;5030815;28;20441;-74
2020/12/05 11:00:26;;;;;;;7.07;2.10;;;6.70;89.40;;;;;;5030838;28;20037;-78
2020/12/05 11:02:51;;;;;;;3.42;1.73;;;6.80;89.40;;;;;;5032346;28;20045;-76
2020/12/05 11:05:17;;;;;;;5.15;2.08;;;6.90;89.10;;;;;;5028987;28;20027;-79
2020/12/05 11:07:43;;;;;;;3.85;1.60;;;7.00;89.10;;;;;;5029372;28;20072;-75
2020/12/05 11:10:09;;;;;;;4.50;2.10;;;7.00;88.90;;;;;;5029363;28;20041;-77
2020/12/05 11:12:34;;;;;;;4.15;1.80;;;7.20;88.80;;;;;;5022745;28;20029;-75
2020/12/05 11:15:00;;;;;;;4.10;1.80;;;7.30;88.70;;;;;;5023084;28;20138;-75
2020/12/05 11:17:26;;;;;;;5.65;2.50;;;7.50;88.70;;;;;;5031438;28;20040;-75
2020/12/05 11:19:52;;;;;;;6.13;2.17;;;7.60;88.50;;;;;;5031756;28;20025;-76
2020/12/05 11:22:18;;;;;;;4.90;2.38;;;7.80;88.20;;;;;;5031924;28;20032;-75
2020/12/05 11:24:44;;;;;;;4.10;1.95;;;7.90;88.00;;;;;;5022027;28;20105;-75
2020/12/05 11:27:09;;;;;;;4.30;1.95;;;8.00;87.70;;;;;;5025000;28;20414;-74
2020/12/05 11:29:35;;;;;;;4.82;2.00;;;8.10;87.70;;;;;;5030705;28;20075;-74
2020/12/05 11:32:01;;;;;;;2.22;1.25;;;8.10;86.80;;;;;;5029059;28;20116;-74
2020/12/05 11:34:27;;;;;;;2.88;1.42;;;8.10;86.90;;;;;;5031722;28;20147;-74
2020/12/05 11:36:52;;;;;;;2.28;1.40;;;8.10;87.00;;;;;;5030711;28;20416;-75
2020/12/05 11:39:18;;;;;;;4.80;1.85;;;8.10;86.80;;;;;;5007926;28;20045;-71
2020/12/05 11:41:44;;;;;;;2.13;1.23;;;8.20;86.00;;;;;;5024959;28;20021;-73
2020/12/05 11:44:09;;;;;;;2.83;1.70;;;8.20;85.30;;;;;;5029232;28;20044;-71
2020/12/05 11:46:35;;;;;;;3.03;1.30;;;8.20;84.50;;;;;;5021605;28;20132;-72
2020/12/05 11:49:01;;;;;;;2.22;1.55;;;8.20;84.20;;;;;;5028901;28;20026;-71
2020/12/05 11:51:29;;;;;;;1.80;1.30;;;8.20;84.30;;;;;;5025165;28;20025;-73
2020/12/05 11:53:55;;;;;;;3.00;1.40;;;8.20;84.20;;;;;;5023876;28;20036;-73
2020/12/05 11:56:21;;;;;;;4.03;1.77;;;8.20;84.20;;;;;;5026402;28;20021;-72
2020/12/05 11:58:48;;;;;;;2.17;1.30;;;8.10;83.40;;;;;;5024726;28;20179;-73
2020/12/05 12:01:13;;;;;;;2.78;1.50;;;8.00;83.20;;;;;;5027279;28;20088;-74
2020/12/05 12:03:40;;;;;;;4.28;1.42;;;8.00;83.20;;;;;;5024879;28;20028;-74
2020/12/05 12:06:12;;;;;;;3.33;1.70;;;7.90;82.40;;;;;;5026230;28;20104;-73
2020/12/05 12:08:38;;;;;;;2.38;1.30;;;7.90;82.40;;;;;;5027416;28;20084;-71
2020/12/05 12:11:03;;;;;;;4.00;1.70;;;7.90;82.00;;;;;;5027209;28;20030;-72
2020/12/05 12:13:29;;;;;;;2.08;1.27;;;7.80;82.10;;;;;;5027313;28;20384;-73
2020/12/05 12:15:55;;;;;;;3.17;1.45;;;7.80;82.50;;;;;;5027922;28;20338;-72
2020/12/05 12:18:20;;;;;;;3.42;1.50;;;7.80;82.80;;;;;;5027204;28;20060;-72
2020/12/05 12:20:46;;;;;;;3.05;1.50;;;7.80;82.70;;;;;;5025893;28;20022;-73
2020/12/05 12:23:11;;;;;;;2.75;1.38;;;7.80;82.30;;;;;;5025961;28;20029;-73
2020/12/05 12:25:37;;;;;;;2.42;1.23;;;7.80;82.40;;;;;;5024714;28;20033;-74
2020/12/05 12:28:03;;;;;;;4.40;1.48;;;7.80;82.00;;;;;;5025964;28;20021;-73
2020/12/05 12:30:31;;;;;;;2.42;1.38;;;7.80;82.10;;;;;;5026089;28;20347;-76
2020/12/05 12:32:58;;;;;;;2.53;1.35;;;7.80;82.00;;;;;;5024948;28;20036;-74
2020/12/05 12:35:23;;;;;;;2.67;1.20;;;7.80;82.10;;;;;;5028827;28;20075;-73
2020/12/05 12:37:49;;;;;;;4.30;1.52;;;7.80;81.80;;;;;;5027571;28;20045;-73
2020/12/05 12:40:15;;;;;;;3.00;1.52;;;7.80;81.50;;;;;;5014374;28;20527;-72
2020/12/05 12:42:41;;;;;;;2.67;1.65;;;7.90;81.40;;;;;;5025754;28;20114;-72
2020/12/05 12:45:06;;;;;;;2.25;1.83;;;7.90;81.00;;;;;;5028043;28;20087;-73
2020/12/05 12:50:02;;;;;;;5.63;1.10;;;8.00;81.00;;;;;;5028031;28;20034;-72
2020/12/05 12:52:28;;;;;;;3.03;1.60;;;8.00;80.80;;;;;;5028688;28;20101;-72
2020/12/05 12:54:53;;;;;;;3.67;1.52;;;8.00;80.70;;;;;;5027647;28;20108;-73
2020/12/05 12:57:20;;;;;;;5.28;1.60;;;8.10;80.50;;;;;;5027840;28;20547;-73
2020/12/05 12:59:46;;;;;;;1.85;1.35;;;8.10;80.50;;;;;;5026956;28;20045;-72
2020/12/05 13:02:11;;;;;;;3.65;1.75;;;8.10;80.50;;;;;;5027025;28;20037;-73
2020/12/05 13:04:37;;;;;;;2.20;1.25;;;8.10;80.50;;;;;;5027235;28;20466;-73
2020/12/05 13:07:03;;;;;;;4.07;2.63;;;8.10;80.60;;;;;;5027776;28;20037;-73